APZ706 RKSS-RKPK
Flight info
| Callsign | APZ706 |
|---|---|
| Flight time | 0h 39m |
| Altitude | 23000 |
| Route | OSPOT2U OSPOT Y782 TGU DCT MASTA GAYHA3 |
| Aircraft | B738/M-SDE2E3FGHIRWXY/LB1 |
Departure
| Time | 2026-05-04 16:12 |
|---|---|
| Airport | Gimpo International Airport (RKSS) |
Arrival
| Time | 2026-05-04 16:51 |
|---|---|
| Airport | Gimhae International Airport (RKPK) |
| Time | Latitude | Longitude | Altitude | Speed | Heading |
|---|---|---|---|---|---|
| 2026-05-04 15:58 | 37.55762 | 126.80333 | 57 ft | 0 kts | 45° |
| 2026-05-04 16:02 | 37.55760 | 126.80331 | 59 ft | 2 kts | 45° |
| 2026-05-04 16:02 | 37.55741 | 126.80307 | 61 ft | 4 kts | 45° |
| 2026-05-04 16:02 | 37.55709 | 126.80263 | 59 ft | 4 kts | 52° |
| 2026-05-04 16:03 | 37.55695 | 126.80235 | 60 ft | 4 kts | 76° |
| 2026-05-04 16:03 | 37.55697 | 126.80210 | 57 ft | 3 kts | 135° |
| 2026-05-04 16:03 | 37.55714 | 126.80190 | 61 ft | 1 kts | 135° |
| 2026-05-04 16:03 | 37.55714 | 126.80189 | 61 ft | 0 kts | 135° |
| 2026-05-04 16:07 | 37.55712 | 126.80192 | 66 ft | 2 kts | 135° |
| 2026-05-04 16:07 | 37.55504 | 126.80405 | 61 ft | 16 kts | 135° |
| 2026-05-04 16:08 | 37.55425 | 126.80504 | 58 ft | 16 kts | 135° |
| 2026-05-04 16:08 | 37.55192 | 126.80581 | 62 ft | 14 kts | 225° |
| 2026-05-04 16:09 | 37.55047 | 126.80667 | 64 ft | 13 kts | 135° |
| 2026-05-04 16:09 | 37.54924 | 126.80820 | 63 ft | 12 kts | 142° |
| 2026-05-04 16:10 | 37.54798 | 126.80715 | 66 ft | 12 kts | 255° |
| 2026-05-04 16:11 | 37.54870 | 126.80597 | 67 ft | 41 kts | 315° |
| 2026-05-04 16:11 | 37.55276 | 126.80084 | 59 ft | 124 kts | 315° |
| 2026-05-04 16:12 | 37.57843 | 126.76788 | 2335 ft | 186 kts | 311° |
| 2026-05-04 16:12 | 37.60934 | 126.72593 | 3591 ft | 246 kts | 311° |
| 2026-05-04 16:13 | 37.61923 | 126.68563 | 5384 ft | 256 kts | 260° |
| 2026-05-04 16:13 | 37.59838 | 126.64925 | 7092 ft | 275 kts | 211° |
| 2026-05-04 16:14 | 37.56027 | 126.64767 | 8751 ft | 290 kts | 157° |
| 2026-05-04 16:14 | 37.52666 | 126.67636 | 10355 ft | 301 kts | 142° |
| 2026-05-04 16:15 | 37.47201 | 126.73210 | 11040 ft | 369 kts | 142° |
| 2026-05-04 16:16 | 37.43102 | 126.77320 | 12400 ft | 380 kts | 143° |
| 2026-05-04 16:16 | 37.36821 | 126.83588 | 14481 ft | 391 kts | 143° |
| 2026-05-04 16:17 | 37.32488 | 126.87862 | 15768 ft | 398 kts | 143° |
| 2026-05-04 16:18 | 37.25815 | 126.94370 | 17640 ft | 410 kts | 143° |
| 2026-05-04 16:18 | 37.23579 | 126.96539 | 18237 ft | 413 kts | 143° |
| 2026-05-04 16:19 | 37.16671 | 127.03236 | 19880 ft | 422 kts | 144° |
| 2026-05-04 16:19 | 37.11988 | 127.07767 | 20912 ft | 428 kts | 144° |
| 2026-05-04 16:20 | 37.04850 | 127.14659 | 22391 ft | 437 kts | 145° |
| 2026-05-04 16:20 | 37.00000 | 127.19334 | 23110 ft | 446 kts | 146° |
| 2026-05-04 16:21 | 36.92562 | 127.26490 | 23100 ft | 451 kts | 146° |
| 2026-05-04 16:22 | 36.87581 | 127.31275 | 23121 ft | 450 kts | 146° |
| 2026-05-04 16:22 | 36.81143 | 127.37958 | 23133 ft | 454 kts | 139° |
| 2026-05-04 16:23 | 36.76716 | 127.43546 | 23136 ft | 455 kts | 139° |
| 2026-05-04 16:24 | 36.67706 | 127.54613 | 23132 ft | 456 kts | 140° |
| 2026-05-04 16:25 | 36.63158 | 127.60165 | 23138 ft | 457 kts | 140° |
| 2026-05-04 16:26 | 36.54092 | 127.71217 | 23127 ft | 457 kts | 141° |
| 2026-05-04 16:26 | 36.47255 | 127.79525 | 23123 ft | 457 kts | 141° |
| 2026-05-04 16:27 | 36.42715 | 127.85034 | 23117 ft | 457 kts | 141° |
| 2026-05-04 16:28 | 36.35872 | 127.93342 | 23117 ft | 457 kts | 141° |
| 2026-05-04 16:28 | 36.29112 | 128.01539 | 23021 ft | 440 kts | 142° |
| 2026-05-04 16:29 | 36.20738 | 128.11569 | 21631 ft | 408 kts | 147° |
| 2026-05-04 16:30 | 36.13552 | 128.16473 | 20183 ft | 389 kts | 160° |
| 2026-05-04 16:31 | 36.08687 | 128.19377 | 19239 ft | 385 kts | 160° |
| 2026-05-04 16:31 | 36.01540 | 128.23702 | 17805 ft | 380 kts | 159° |
| 2026-05-04 16:32 | 35.94503 | 128.27984 | 16388 ft | 373 kts | 158° |
| 2026-05-04 16:33 | 35.89854 | 128.30812 | 15460 ft | 371 kts | 158° |
| 2026-05-04 16:33 | 35.85233 | 128.33617 | 14565 ft | 368 kts | 158° |
| 2026-05-04 16:34 | 35.80682 | 128.36378 | 13702 ft | 366 kts | 157° |
| 2026-05-04 16:34 | 35.78401 | 128.37757 | 13255 ft | 363 kts | 157° |
| 2026-05-04 16:35 | 35.71641 | 128.41849 | 11970 ft | 357 kts | 157° |
| 2026-05-04 16:35 | 35.65041 | 128.45840 | 11011 ft | 340 kts | 157° |
| 2026-05-04 16:36 | 35.62967 | 128.47096 | 10891 ft | 323 kts | 157° |
| 2026-05-04 16:36 | 35.59146 | 128.49403 | 10651 ft | 293 kts | 158° |
| 2026-05-04 16:37 | 35.55588 | 128.51542 | 10232 ft | 282 kts | 158° |
| 2026-05-04 16:37 | 35.53825 | 128.52600 | 10018 ft | 281 kts | 158° |
| 2026-05-04 16:37 | 35.50317 | 128.54661 | 9378 ft | 277 kts | 164° |
| 2026-05-04 16:38 | 35.46642 | 128.55851 | 8883 ft | 271 kts | 171° |
| 2026-05-04 16:39 | 35.41202 | 128.57412 | 8223 ft | 267 kts | 171° |
| 2026-05-04 16:39 | 35.37597 | 128.58473 | 7735 ft | 264 kts | 170° |
| 2026-05-04 16:40 | 35.34034 | 128.59568 | 7243 ft | 263 kts | 171° |
| 2026-05-04 16:40 | 35.30503 | 128.60648 | 6852 ft | 261 kts | 170° |
| 2026-05-04 16:41 | 35.27000 | 128.61729 | 6434 ft | 262 kts | 169° |
| 2026-05-04 16:41 | 35.21773 | 128.63381 | 5792 ft | 259 kts | 165° |
| 2026-05-04 16:42 | 35.16800 | 128.66036 | 5102 ft | 259 kts | 159° |
| 2026-05-04 16:43 | 35.13546 | 128.67820 | 4757 ft | 255 kts | 160° |
| 2026-05-04 16:43 | 35.10273 | 128.69558 | 4195 ft | 256 kts | 163° |
| 2026-05-04 16:43 | 35.08634 | 128.70385 | 4100 ft | 250 kts | 160° |
| 2026-05-04 16:44 | 35.03054 | 128.74223 | 3551 ft | 222 kts | 117° |
| 2026-05-04 16:45 | 35.03268 | 128.77729 | 2966 ft | 210 kts | 50° |
| 2026-05-04 16:46 | 35.06622 | 128.81086 | 2622 ft | 210 kts | 32° |
| 2026-05-04 16:46 | 35.08931 | 128.83188 | 2568 ft | 205 kts | 32° |
| 2026-05-04 16:47 | 35.11238 | 128.85252 | 2582 ft | 210 kts | 27° |
| 2026-05-04 16:47 | 35.13506 | 128.86999 | 2613 ft | 172 kts | 25° |
| 2026-05-04 16:48 | 35.16526 | 128.88595 | 2331 ft | 141 kts | 340° |
| 2026-05-04 16:48 | 35.17535 | 128.88404 | 1855 ft | 152 kts | 348° |
| 2026-05-04 16:49 | 35.19626 | 128.88103 | 1476 ft | 155 kts | 352° |
| 2026-05-04 16:49 | 35.21682 | 128.88676 | 914 ft | 160 kts | 52° |
| 2026-05-04 16:50 | 35.22002 | 128.91297 | 740 ft | 158 kts | 90° |
| 2026-05-04 16:50 | 35.20563 | 128.93189 | 450 ft | 167 kts | 158° |
| 2026-05-04 16:51 | 35.18342 | 128.93642 | 24 ft | 156 kts | 173° |
| 2026-05-04 16:51 | 35.17410 | 128.93767 | 28 ft | 106 kts | 173° |
| 2026-05-04 16:51 | 35.16958 | 128.94013 | 21 ft | 20 kts | 83° |
| 2026-05-04 16:52 | 35.16985 | 128.94338 | 22 ft | 19 kts | 84° |
| 2026-05-04 16:52 | 35.16997 | 128.94460 | 24 ft | 8 kts | 75° |
| 2026-05-04 16:53 | 35.17046 | 128.94566 | 22 ft | 7 kts | 69° |
| 2026-05-04 16:53 | 35.17057 | 128.94603 | 22 ft | 0 kts | 69° |